Time;durP1;ratioP1;P1;durP2;ratioP2;P2;SDS_P1;SDS_P2;PMS_P1;PMS_P2;Temp;Humidity;BMP_temperature;BMP_pressure;BME280_temperature;BME280_humidity;BME280_pressure;Samples;Min_cycle;Max_cycle;Signal;HPM_P1;HPM_P2
2023/10/20 00:01:34;;;;;;;0.68;0.68;;;;;;;;;;4969657;28;20062;-82
2023/10/20 00:04:03;;;;;;;0.80;0.80;;;;;;;;;;4970430;29;20039;-83
2023/10/20 00:06:29;;;;;;;0.68;0.68;;;;;;;;;;4971923;29;20491;-83
2023/10/20 00:08:58;;;;;;;0.70;0.68;;;;;;;;;;4971735;29;20106;-83
2023/10/20 00:11:25;;;;;;;0.60;0.60;;;;;;;;;;4973110;29;20041;-85
2023/10/20 00:13:53;;;;;;;0.60;0.60;;;;;;;;;;4970077;29;20066;-84
2023/10/20 00:16:27;;;;;;;0.60;0.60;;;;;;;;;;4936647;29;20039;-83
2023/10/20 00:18:56;;;;;;;0.60;0.60;;;;;;;;;;4930768;29;20042;-84
2023/10/20 00:21:26;;;;;;;0.60;0.60;;;;;;;;;;4899890;29;20037;-81
2023/10/20 00:23:52;;;;;;;0.55;0.55;;;;;;;;;;4915993;29;20028;-83
2023/10/20 00:26:19;;;;;;;0.60;0.60;;;;;;;;;;4914978;29;20036;-85
2023/10/20 00:28:45;;;;;;;0.60;0.60;;;;;;;;;;4914051;29;20032;-81
2023/10/20 00:31:11;;;;;;;0.60;0.60;;;;;;;;;;4914875;29;20024;-82
2023/10/20 00:33:39;;;;;;;0.77;0.70;;;;;;;;;;4949117;29;20032;-82
2023/10/20 00:36:10;;;;;;;0.60;0.60;;;;;;;;;;4931689;29;20040;-83
2023/10/20 00:38:36;;;;;;;0.75;0.70;;;;;;;;;;4932879;29;20557;-82
2023/10/20 00:41:03;;;;;;;0.63;0.63;;;;;;;;;;4933838;29;20058;-82
2023/10/20 00:43:48;;;;;;;0.63;0.60;;;;;;;;;;4919191;29;20031;-84
2023/10/20 00:46:19;;;;;;;0.70;0.70;;;;;;;;;;4942818;29;20036;-84
2023/10/20 00:48:50;;;;;;;0.50;0.50;;;;;;;;;;4937068;29;20405;-84
2023/10/20 00:51:20;;;;;;;0.60;0.60;;;;;;;;;;4936389;29;20083;-85
2023/10/20 00:53:47;;;;;;;0.60;0.60;;;;;;;;;;4934588;29;20047;-83
2023/10/20 00:56:16;;;;;;;0.77;0.77;;;;;;;;;;4909752;29;20032;-84
2023/10/20 00:58:43;;;;;;;0.68;0.65;;;;;;;;;;4893978;29;20029;-82
2023/10/20 01:01:10;;;;;;;0.55;0.55;;;;;;;;;;4894051;29;20164;-83
2023/10/20 01:03:36;;;;;;;0.50;0.50;;;;;;;;;;4910513;29;20056;-84
2023/10/20 01:06:04;;;;;;;0.75;0.75;;;;;;;;;;4913127;29;20036;-83
2023/10/20 01:08:30;;;;;;;0.70;0.70;;;;;;;;;;4939846;29;20052;-83
2023/10/20 01:10:56;;;;;;;0.77;0.70;;;;;;;;;;4948082;29;20032;-84
2023/10/20 01:13:23;;;;;;;0.57;0.57;;;;;;;;;;4947494;29;20059;-83
2023/10/20 01:15:50;;;;;;;0.70;0.70;;;;;;;;;;4947394;29;20047;-82
2023/10/20 01:18:28;;;;;;;0.70;0.70;;;;;;;;;;4947789;29;20059;-86
2023/10/20 01:20:55;;;;;;;0.60;0.60;;;;;;;;;;4948042;29;20063;-83
2023/10/20 01:23:21;;;;;;;0.60;0.60;;;;;;;;;;4947861;29;20039;-84
2023/10/20 01:25:48;;;;;;;0.60;0.60;;;;;;;;;;4947877;29;20154;-84
2023/10/20 01:28:36;;;;;;;0.70;0.70;;;;;;;;;;4948307;29;20039;-84
2023/10/20 01:31:03;;;;;;;0.70;0.60;;;;;;;;;;4894837;29;20028;-84
2023/10/20 01:33:29;;;;;;;0.70;0.70;;;;;;;;;;4873061;29;20072;-83
2023/10/20 01:36:17;;;;;;;1.13;0.93;;;;;;;;;;4873361;29;20089;-83
2023/10/20 01:38:44;;;;;;;0.60;0.60;;;;;;;;;;4842854;29;20113;-84
2023/10/20 01:41:10;;;;;;;1.23;0.82;;;;;;;;;;4857684;29;20034;-85
2023/10/20 01:43:37;;;;;;;0.60;0.60;;;;;;;;;;4854128;29;20030;-84
2023/10/20 01:46:09;;;;;;;1.10;0.70;;;;;;;;;;4853626;29;20070;-85
2023/10/20 01:48:36;;;;;;;0.60;0.60;;;;;;;;;;4854146;29;20038;-84
2023/10/20 01:51:03;;;;;;;0.60;0.60;;;;;;;;;;4854393;29;20033;-84
2023/10/20 01:53:31;;;;;;;0.50;0.50;;;;;;;;;;4838636;29;20534;-84
2023/10/20 01:55:57;;;;;;;0.55;0.55;;;;;;;;;;4818638;29;20095;-84
2023/10/20 01:58:24;;;;;;;0.63;0.60;;;;;;;;;;4813419;29;20110;-84
2023/10/20 02:00:55;;;;;;;0.60;0.60;;;;;;;;;;4791885;29;20450;-84
2023/10/20 02:03:34;;;;;;;0.80;0.80;;;;;;;;;;4806192;29;20456;-84
2023/10/20 02:06:03;;;;;;;0.60;0.60;;;;;;;;;;4806565;29;20123;-84
2023/10/20 02:08:34;;;;;;;0.70;0.70;;;;;;;;;;4821220;29;20564;-84
2023/10/20 02:11:01;;;;;;;0.50;0.50;;;;;;;;;;4848022;29;20045;-85
2023/10/20 02:13:28;;;;;;;0.60;0.60;;;;;;;;;;4856097;29;20055;-84
2023/10/20 02:15:57;;;;;;;0.60;0.60;;;;;;;;;;4841714;29;20101;-85
2023/10/20 02:18:34;;;;;;;0.70;0.70;;;;;;;;;;4856461;29;20113;-84
2023/10/20 02:21:07;;;;;;;1.00;0.80;;;;;;;;;;4889229;29;20040;-84
2023/10/20 02:23:48;;;;;;;0.70;0.70;;;;;;;;;;4911987;29;20033;-85
2023/10/20 02:26:35;;;;;;;0.60;0.60;;;;;;;;;;4928976;29;20036;-84
2023/10/20 02:29:22;;;;;;;0.60;0.60;;;;;;;;;;4898743;29;20056;-84
2023/10/20 02:32:30;;;;;;;0.80;0.70;;;;;;;;;;4896660;29;20029;-84
2023/10/20 02:35:17;;;;;;;0.63;0.63;;;;;;;;;;4898066;29;20041;-84
2023/10/20 02:38:14;;;;;;;0.75;0.75;;;;;;;;;;4897377;29;20064;-84
2023/10/20 02:41:03;;;;;;;0.60;0.60;;;;;;;;;;4916328;29;20191;-84
2023/10/20 02:43:37;;;;;;;0.60;0.60;;;;;;;;;;4883631;29;20053;-86
2023/10/20 02:46:09;;;;;;;0.68;0.68;;;;;;;;;;4897256;29;20033;-86
2023/10/20 02:48:40;;;;;;;0.70;0.70;;;;;;;;;;4889854;29;20048;-84
2023/10/20 02:51:17;;;;;;;2.80;0.73;;;;;;;;;;4881668;29;20037;-84
2023/10/20 02:53:56;;;;;;;0.60;0.60;;;;;;;;;;4881683;29;20037;-83
2023/10/20 02:56:24;;;;;;;0.60;0.60;;;;;;;;;;4881439;29;20057;-83
2023/10/20 02:59:13;;;;;;;0.60;0.60;;;;;;;;;;4881817;29;20025;-84
2023/10/20 03:01:39;;;;;;;1.13;0.60;;;;;;;;;;4881071;29;20596;-83
2023/10/20 03:04:06;;;;;;;1.42;0.75;;;;;;;;;;4881156;29;20037;-83
2023/10/20 03:06:32;;;;;;;0.65;0.65;;;;;;;;;;4877568;29;20550;-84
2023/10/20 03:09:00;;;;;;;0.65;0.65;;;;;;;;;;4888021;29;20068;-83
2023/10/20 03:11:27;;;;;;;0.50;0.50;;;;;;;;;;4917219;29;20096;-83
2023/10/20 03:13:59;;;;;;;0.60;0.60;;;;;;;;;;4917411;29;20092;-85
2023/10/20 03:16:29;;;;;;;0.60;0.60;;;;;;;;;;4915395;29;20040;-84
2023/10/20 03:18:55;;;;;;;0.50;0.50;;;;;;;;;;4898718;29;20040;-84
2023/10/20 03:21:24;;;;;;;0.60;0.60;;;;;;;;;;4928288;29;20095;-84
2023/10/20 03:23:53;;;;;;;0.60;0.60;;;;;;;;;;4931992;29;20134;-85
2023/10/20 03:26:22;;;;;;;0.60;0.60;;;;;;;;;;4949888;29;20028;-85
2023/10/20 03:28:51;;;;;;;0.73;0.70;;;;;;;;;;4887920;29;20071;-84
2023/10/20 03:31:51;;;;;;;1.17;0.82;;;;;;;;;;4936479;29;20039;-85
2023/10/20 03:34:35;;;;;;;0.60;0.60;;;;;;;;;;4874328;29;20034;-85
2023/10/20 03:37:13;;;;;;;0.40;0.40;;;;;;;;;;4842745;29;20037;-84
2023/10/20 03:39:44;;;;;;;0.60;0.60;;;;;;;;;;4858285;29;20431;-84
2023/10/20 03:42:13;;;;;;;0.70;0.70;;;;;;;;;;4825619;29;20046;-83
2023/10/20 03:44:40;;;;;;;0.60;0.60;;;;;;;;;;4899780;29;20068;-83
2023/10/20 03:47:07;;;;;;;0.60;0.60;;;;;;;;;;4911765;29;20028;-84
2023/10/20 03:49:35;;;;;;;0.80;0.65;;;;;;;;;;4910818;29;20481;-83
2023/10/20 03:52:06;;;;;;;0.50;0.50;;;;;;;;;;4892949;29;20033;-84
2023/10/20 03:54:34;;;;;;;0.70;0.60;;;;;;;;;;4876651;29;20057;-84
2023/10/20 03:57:03;;;;;;;0.50;0.50;;;;;;;;;;4846973;29;20092;-84
2023/10/20 03:59:35;;;;;;;0.50;0.50;;;;;;;;;;4876892;29;20437;-84
2023/10/20 04:02:27;;;;;;;0.50;0.50;;;;;;;;;;4855712;29;20037;-84
2023/10/20 04:05:14;;;;;;;0.50;0.50;;;;;;;;;;4828233;29;20099;-85
2023/10/20 04:07:51;;;;;;;0.57;0.57;;;;;;;;;;4838277;29;20535;-84
2023/10/20 04:10:20;;;;;;;0.85;0.85;;;;;;;;;;4836118;29;20039;-83
2023/10/20 04:13:12;;;;;;;0.68;0.68;;;;;;;;;;4823500;29;20117;-84
2023/10/20 04:15:42;;;;;;;0.50;0.50;;;;;;;;;;4837434;29;20039;-84
2023/10/20 04:18:12;;;;;;;0.60;0.60;;;;;;;;;;4856134;29;20612;-83
2023/10/20 04:20:59;;;;;;;0.60;0.60;;;;;;;;;;4856263;29;20041;-84
2023/10/20 04:23:36;;;;;;;0.88;0.80;;;;;;;;;;4855981;29;20090;-84
2023/10/20 04:26:21;;;;;;;0.60;0.60;;;;;;;;;;4856184;29;20049;-85
2023/10/20 04:49:28;;;;;;;0.70;0.70;;;;;;;;;;4874390;29;20036;-85
2023/10/20 04:58:13;;;;;;;0.85;0.80;;;;;;;;;;4855773;29;20113;-84
2023/10/20 05:00:55;;;;;;;0.60;0.60;;;;;;;;;;4831039;29;20044;-85
2023/10/20 05:03:48;;;;;;;0.77;0.68;;;;;;;;;;4826597;29;20038;-83
2023/10/20 05:06:54;;;;;;;0.57;0.57;;;;;;;;;;4855892;29;20033;-84
2023/10/20 05:09:25;;;;;;;0.60;0.60;;;;;;;;;;4852242;29;20128;-86
2023/10/20 05:12:12;;;;;;;1.13;0.80;;;;;;;;;;4855021;29;20038;-85
2023/10/20 05:17:50;;;;;;;;;;;;;;;;;;4852905;29;20100;-85
2023/10/20 05:30:43;;;;;;;0.50;0.50;;;;;;;;;;4773998;30;20070;-85
2023/10/20 05:33:29;;;;;;;0.60;0.60;;;;;;;;;;4780952;30;20123;-85
2023/10/20 05:36:44;;;;;;;0.85;0.85;;;;;;;;;;4781236;30;20095;-85
2023/10/20 05:39:58;;;;;;;0.60;0.60;;;;;;;;;;4744936;30;20044;-85
2023/10/20 05:58:15;;;;;;;0.70;0.70;;;;;;;;;;4697745;30;20060;-86
2023/10/20 06:04:43;;;;;;;1.05;0.95;;;;;;;;;;4713128;30;20040;-85
2023/10/20 06:07:49;;;;;;;0.40;0.40;;;;;;;;;;4726494;30;20041;-85
2023/10/20 06:27:18;;;;;;;0.73;0.73;;;;;;;;;;4745016;30;20091;-86
2023/10/20 06:52:30;;;;;;;0.50;0.50;;;;;;;;;;4936625;29;20031;-86
2023/10/20 06:56:01;;;;;;;0.52;0.52;;;;;;;;;;4926347;29;20085;-86
2023/10/20 07:08:51;;;;;;;0.60;0.60;;;;;;;;;;4945790;29;20097;-86
2023/10/20 07:24:47;;;;;;;0.50;0.50;;;;;;;;;;4911907;29;20076;-86
2023/10/20 07:37:11;;;;;;;0.50;0.50;;;;;;;;;;4779322;30;20066;-84
2023/10/20 07:39:40;;;;;;;0.60;0.60;;;;;;;;;;4778746;30;20035;-87
2023/10/20 07:42:06;;;;;;;0.63;0.63;;;;;;;;;;4783049;30;20032;-85
2023/10/20 07:44:32;;;;;;;0.50;0.50;;;;;;;;;;4762217;30;20545;-84
2023/10/20 07:47:00;;;;;;;1.65;0.70;;;;;;;;;;4768279;29;20043;-86
2023/10/20 07:49:26;;;;;;;0.70;0.70;;;;;;;;;;4798312;30;20039;-81
2023/10/20 07:52:14;;;;;;;0.60;0.60;;;;;;;;;;4797563;29;20047;-82
2023/10/20 07:54:43;;;;;;;0.60;0.60;;;;;;;;;;4808060;29;20039;-84
2023/10/20 07:57:12;;;;;;;0.50;0.50;;;;;;;;;;4811063;29;20052;-85
2023/10/20 07:59:40;;;;;;;0.52;0.52;;;;;;;;;;4782213;29;20040;-82
2023/10/20 08:02:07;;;;;;;1.20;1.02;;;;;;;;;;4796495;29;20047;-83
2023/10/20 08:04:36;;;;;;;0.60;0.60;;;;;;;;;;4812444;29;20039;-85
2023/10/20 08:07:13;;;;;;;0.68;0.68;;;;;;;;;;4833385;29;20046;-87
2023/10/20 08:09:40;;;;;;;0.60;0.60;;;;;;;;;;4816321;29;20134;-83
2023/10/20 08:12:06;;;;;;;0.50;0.50;;;;;;;;;;4874376;29;20071;-84
2023/10/20 08:14:36;;;;;;;0.93;0.80;;;;;;;;;;4948664;29;20479;-86
2023/10/20 08:17:03;;;;;;;0.50;0.50;;;;;;;;;;4952035;29;20036;-86
2023/10/20 08:20:09;;;;;;;0.60;0.60;;;;;;;;;;4853766;29;1699880;-84
2023/10/20 08:23:01;;;;;;;0.68;0.68;;;;;;;;;;4895951;29;20044;-86
2023/10/20 08:25:30;;;;;;;0.55;0.55;;;;;;;;;;4898495;29;20037;-86
2023/10/20 08:27:57;;;;;;;0.77;0.77;;;;;;;;;;4898295;29;20559;-83
2023/10/20 08:30:25;;;;;;;0.52;0.50;;;;;;;;;;4947711;29;20095;-83
2023/10/20 08:33:06;;;;;;;0.70;0.70;;;;;;;;;;4934081;29;20028;-86
2023/10/20 08:35:40;;;;;;;0.50;0.50;;;;;;;;;;4917692;29;20487;-86
2023/10/20 08:38:27;;;;;;;0.50;0.50;;;;;;;;;;4934977;29;20036;-82
2023/10/20 08:40:55;;;;;;;0.50;0.50;;;;;;;;;;4950719;29;20032;-87
2023/10/20 08:43:22;;;;;;;0.63;0.63;;;;;;;;;;4953161;29;20037;-86
2023/10/20 08:45:48;;;;;;;0.70;0.70;;;;;;;;;;4971363;28;20039;-87
2023/10/20 08:48:15;;;;;;;0.60;0.60;;;;;;;;;;4978131;28;20035;-86
2023/10/20 08:50:43;;;;;;;0.45;0.45;;;;;;;;;;4997942;28;20038;-86
2023/10/20 08:53:10;;;;;;;0.40;0.40;;;;;;;;;;5016957;28;20026;-82
2023/10/20 08:58:26;;;;;;;1.08;0.80;;;;;;;;;;5038624;28;20037;-87
2023/10/20 09:00:53;;;;;;;0.50;0.50;;;;;;;;;;5021595;28;20032;-84
2023/10/20 09:03:22;;;;;;;0.60;0.60;;;;;;;;;;4991314;28;20035;-81
2023/10/20 09:05:50;;;;;;;0.60;0.60;;;;;;;;;;4972752;28;20419;-81
2023/10/20 09:08:17;;;;;;;0.80;0.60;;;;;;;;;;4967954;28;20117;-83
2023/10/20 09:10:43;;;;;;;0.50;0.50;;;;;;;;;;4968640;28;20027;-82
2023/10/20 09:13:09;;;;;;;0.45;0.45;;;;;;;;;;4967486;28;20035;-79
2023/10/20 09:15:37;;;;;;;0.40;0.40;;;;;;;;;;4968862;28;20466;-84
2023/10/20 09:18:37;;;;;;;0.50;0.50;;;;;;;;;;4983918;28;20356;-84
2023/10/20 09:21:25;;;;;;;0.73;0.73;;;;;;;;;;4978094;28;20062;-85
2023/10/20 09:26:56;;;;;;;0.45;0.45;;;;;;;;;;4993071;28;20121;-88
2023/10/20 09:29:23;;;;;;;0.50;0.50;;;;;;;;;;4998625;28;20037;-88
2023/10/20 09:31:50;;;;;;;0.95;0.47;;;;;;;;;;4999327;28;20037;-88
2023/10/20 09:34:16;;;;;;;0.90;0.85;;;;;;;;;;5000661;28;20080;-89
2023/10/20 09:36:58;;;;;;;0.40;0.40;;;;;;;;;;4987590;28;20108;-89
2023/10/20 09:39:33;;;;;;;0.32;0.32;;;;;;;;;;5016372;28;20036;-89
2023/10/20 09:42:02;;;;;;;0.57;0.57;;;;;;;;;;4995665;28;20026;-88
2023/10/20 09:47:33;;;;;;;0.50;0.50;;;;;;;;;;5010773;28;20452;-87
2023/10/20 09:50:00;;;;;;;0.70;0.63;;;;;;;;;;5001339;28;20076;-89
2023/10/20 09:52:26;;;;;;;0.52;0.52;;;;;;;;;;4999525;28;20030;-89
2023/10/20 09:54:53;;;;;;;0.50;0.50;;;;;;;;;;4998347;28;20029;-87
2023/10/20 09:57:22;;;;;;;0.50;0.50;;;;;;;;;;5015061;28;20093;-85
2023/10/20 09:59:55;;;;;;;0.70;0.70;;;;;;;;;;5007704;28;20030;-88
2023/10/20 10:02:28;;;;;;;0.57;0.57;;;;;;;;;;4998392;28;20042;-87
2023/10/20 10:04:54;;;;;;;0.60;0.60;;;;;;;;;;4997990;28;20037;-87
2023/10/20 10:07:28;;;;;;;0.40;0.40;;;;;;;;;;4998527;28;20474;-90
2023/10/20 10:09:55;;;;;;;0.52;0.52;;;;;;;;;;4997633;28;20109;-88
2023/10/20 10:12:22;;;;;;;0.52;0.52;;;;;;;;;;4997822;28;20116;-89
2023/10/20 10:14:59;;;;;;;0.50;0.50;;;;;;;;;;4990434;28;20119;-89
2023/10/20 10:17:26;;;;;;;0.50;0.50;;;;;;;;;;4998248;28;20022;-89
2023/10/20 10:19:53;;;;;;;0.73;0.73;;;;;;;;;;4981441;28;20505;-88
2023/10/20 10:22:26;;;;;;;0.40;0.40;;;;;;;;;;4982673;28;20025;-90
2023/10/20 10:24:55;;;;;;;0.43;0.43;;;;;;;;;;4998127;28;20481;-89
2023/10/20 10:27:22;;;;;;;0.60;0.60;;;;;;;;;;4995985;28;20096;-90
2023/10/20 10:30:22;;;;;;;0.65;0.65;;;;;;;;;;4981229;28;20018;-91
2023/10/20 10:32:48;;;;;;;0.50;0.50;;;;;;;;;;5001155;28;20034;-91
2023/10/20 10:35:14;;;;;;;;;;;;;;;;;;4998763;28;20037;-89
2023/10/20 10:37:40;;;;;;;0.40;0.40;;;;;;;;;;4997929;28;20369;-89
2023/10/20 10:40:07;;;;;;;0.55;0.55;;;;;;;;;;4998008;28;20529;-89
2023/10/20 10:42:40;;;;;;;0.40;0.40;;;;;;;;;;4997667;28;20072;-88
2023/10/20 10:45:17;;;;;;;0.30;0.30;;;;;;;;;;4998391;28;20486;-87
2023/10/20 10:47:44;;;;;;;0.40;0.40;;;;;;;;;;5001733;28;20021;-88
2023/10/20 10:50:10;;;;;;;0.50;0.50;;;;;;;;;;4996672;28;20029;-89
2023/10/20 10:52:36;;;;;;;0.40;0.40;;;;;;;;;;5001729;28;20018;-88
2023/10/20 10:55:03;;;;;;;0.40;0.40;;;;;;;;;;5001846;28;20029;-89
2023/10/20 10:57:31;;;;;;;0.43;0.43;;;;;;;;;;5001978;28;20046;-89
2023/10/20 10:59:57;;;;;;;0.50;0.50;;;;;;;;;;5018673;28;20065;-88
2023/10/20 11:02:23;;;;;;;0.52;0.52;;;;;;;;;;5013977;28;20018;-89
2023/10/20 11:04:49;;;;;;;0.50;0.43;;;;;;;;;;5001297;28;20397;-87
2023/10/20 11:07:15;;;;;;;0.50;0.50;;;;;;;;;;5001027;28;20030;-90
2023/10/20 11:09:42;;;;;;;0.40;0.40;;;;;;;;;;5001426;28;20462;-87
2023/10/20 11:12:08;;;;;;;0.65;0.65;;;;;;;;;;5018495;28;20025;-90
2023/10/20 11:14:34;;;;;;;0.52;0.52;;;;;;;;;;5001134;28;20041;-88
2023/10/20 11:17:04;;;;;;;0.55;0.55;;;;;;;;;;5001554;28;20038;-88
2023/10/20 11:19:30;;;;;;;0.57;0.57;;;;;;;;;;5000876;28;20026;-87
2023/10/20 11:21:57;;;;;;;0.43;0.43;;;;;;;;;;5001260;28;20049;-88
2023/10/20 11:24:28;;;;;;;0.30;0.30;;;;;;;;;;5001309;28;20124;-89
2023/10/20 11:26:55;;;;;;;1.00;0.73;;;;;;;;;;5002438;28;20033;-89
2023/10/20 11:29:22;;;;;;;0.38;0.38;;;;;;;;;;5000433;28;20462;-87
2023/10/20 11:31:48;;;;;;;0.50;0.50;;;;;;;;;;5000843;28;20049;-89
2023/10/20 11:34:15;;;;;;;0.40;0.40;;;;;;;;;;5020338;28;20481;-89
2023/10/20 11:36:41;;;;;;;0.52;0.52;;;;;;;;;;5000481;28;20030;-88
2023/10/20 11:39:07;;;;;;;0.50;0.50;;;;;;;;;;5002692;28;20025;-90
2023/10/20 11:41:34;;;;;;;0.55;0.55;;;;;;;;;;5000593;28;20120;-88
2023/10/20 11:44:00;;;;;;;0.60;0.60;;;;;;;;;;5000276;28;20057;-86
2023/10/20 11:46:26;;;;;;;0.63;0.63;;;;;;;;;;5000681;28;20113;-88
2023/10/20 11:48:53;;;;;;;0.40;0.40;;;;;;;;;;5000657;28;20052;-89
2023/10/20 11:51:19;;;;;;;0.30;0.30;;;;;;;;;;5000544;28;20425;-88
2023/10/20 11:53:45;;;;;;;0.40;0.40;;;;;;;;;;5000936;28;20478;-87
2023/10/20 11:56:11;;;;;;;0.50;0.50;;;;;;;;;;5000039;28;20022;-88
2023/10/20 11:58:38;;;;;;;1.00;0.57;;;;;;;;;;4999448;28;20033;-88
2023/10/20 12:01:04;;;;;;;0.57;0.57;;;;;;;;;;5000647;28;20032;-88
2023/10/20 12:03:30;;;;;;;0.63;0.60;;;;;;;;;;5000704;28;20022;-88
2023/10/20 12:05:56;;;;;;;0.50;0.50;;;;;;;;;;5000669;28;20088;-88
2023/10/20 12:08:23;;;;;;;0.30;0.30;;;;;;;;;;4999929;28;20029;-88
2023/10/20 12:10:49;;;;;;;0.35;0.35;;;;;;;;;;4999853;28;20014;-90
2023/10/20 12:13:15;;;;;;;1.33;0.80;;;;;;;;;;5000341;28;20057;-86
2023/10/20 12:15:42;;;;;;;0.50;0.50;;;;;;;;;;5000331;28;20033;-87
2023/10/20 12:18:08;;;;;;;0.30;0.30;;;;;;;;;;4999365;28;20028;-88
2023/10/20 12:20:34;;;;;;;0.55;0.55;;;716.80;2022.40;;;;;;4999273;28;20088;-86
2023/10/20 12:23:00;;;;;;;0.30;0.30;;;;;;;;;;4999576;28;20053;-87
2023/10/20 12:25:26;;;;;;;0.22;0.22;;;717.10;1996.80;;;;;;5000014;28;20033;-86
2023/10/20 12:27:52;;;;;;;0.32;0.32;;;717.20;1971.20;;;;;;4999851;28;20037;-86
2023/10/20 12:30:18;;;;;;;0.30;0.30;;;717.20;1971.20;;;;;;4999192;28;20116;-86
2023/10/20 12:32:44;;;;;;;0.30;0.30;;;717.50;1971.20;;;;;;4999266;28;20045;-87
2023/10/20 12:35:11;;;;;;;0.28;0.28;;;717.60;1971.20;;;;;;4999930;28;20034;-85
2023/10/20 12:37:38;;;;;;;0.38;0.38;;;;;;;;;;4999248;28;20030;-86
2023/10/20 12:40:05;;;;;;;0.25;0.25;;;;;;;;;;4999232;28;20077;-85
2023/10/20 12:42:32;;;;;;;0.30;0.30;;;;;;;;;;4999178;28;20033;-87
2023/10/20 12:45:01;;;;;;;0.30;0.30;;;;;;;;;;4999158;28;20030;-87
2023/10/20 12:47:27;;;;;;;0.30;0.30;;;;;;;;;;5001006;28;20033;-88
2023/10/20 12:49:54;;;;;;;0.28;0.28;;;;;;;;;;5018990;28;20025;-87
2023/10/20 12:52:20;;;;;;;0.30;0.30;;;;;;;;;;5002830;28;20029;-85
2023/10/20 12:54:47;;;;;;;0.43;0.40;;;;;;;;;;4999482;28;20064;-87
2023/10/20 12:57:13;;;;;;;0.22;0.22;;;;;;;;;;4999502;28;20022;-87
2023/10/20 12:59:39;;;;;;;0.30;0.30;;;;;;;;;;5005117;28;20030;-85
2023/10/20 13:02:05;;;;;;;0.20;0.20;;;;;;;;;;5003567;28;20064;-87
2023/10/20 13:04:31;;;;;;;0.30;0.30;;;;;;;;;;5002292;28;20038;-87
2023/10/20 13:06:58;;;;;;;0.43;0.43;;;;;;;;;;4999875;28;20022;-87
2023/10/20 13:09:24;;;;;;;0.38;0.38;;;;;;;;;;4998426;28;20492;-87
2023/10/20 13:11:50;;;;;;;0.93;0.80;;;;;;;;;;4999825;28;20022;-87
2023/10/20 13:14:16;;;;;;;1.08;0.75;;;;;;;;;;4999209;28;20033;-86
2023/10/20 13:16:42;;;;;;;0.75;0.68;;;;;;;;;;4998679;28;20308;-87
2023/10/20 13:19:08;;;;;;;0.82;0.65;;;;;;;;;;4998851;28;20149;-86
2023/10/20 13:21:35;;;;;;;0.40;0.40;;;;;;;;;;5001924;28;20050;-86
2023/10/20 13:24:02;;;;;;;1.42;0.70;;;;;;;;;;5005683;28;20033;-88
2023/10/20 13:26:28;;;;;;;0.55;0.50;;;;;;;;;;5000221;28;20025;-85
2023/10/20 13:28:54;;;;;;;0.57;0.55;;;;;;;;;;4999384;28;20022;-86
2023/10/20 13:31:23;;;;;;;1.90;1.00;;;;;;;;;;5001089;28;20026;-89
2023/10/20 13:33:49;;;;;;;1.63;0.93;;;;;;;;;;5003914;28;20032;-88
2023/10/20 13:36:16;;;;;;;0.55;0.50;;;;;;;;;;5004724;28;20505;-84
2023/10/20 13:38:43;;;;;;;1.25;0.75;;;;;;;;;;5005438;28;20075;-83
2023/10/20 13:41:09;;;;;;;0.90;0.63;;;;;;;;;;5006353;28;20478;-87
2023/10/20 13:43:35;;;;;;;1.10;0.65;;;;;;;;;;4997841;28;20500;-85
2023/10/20 13:46:02;;;;;;;0.88;0.80;;;;;;;;;;4998719;28;20030;-86
2023/10/20 13:48:28;;;;;;;1.48;0.95;;;;;;;;;;4998872;28;20044;-86
2023/10/20 13:50:54;;;;;;;0.38;0.38;;;;;;;;;;4998273;28;20466;-86
2023/10/20 13:53:21;;;;;;;1.02;0.82;;;;;;;;;;4998325;28;20032;-86
2023/10/20 13:55:47;;;;;;;0.65;0.57;;;;;;;;;;4998352;28;20030;-87
2023/10/20 13:58:18;;;;;;;0.70;0.63;;;;;;;;;;4984397;28;20042;-87
2023/10/20 14:00:44;;;;;;;0.75;0.75;;;;;;;;;;4978270;28;20049;-87
2023/10/20 14:03:12;;;;;;;1.65;0.85;;;;;;;;;;4979673;28;20026;-85
2023/10/20 14:05:38;;;;;;;0.63;0.52;;;;;;;;;;4978842;28;20386;-86
2023/10/20 14:08:05;;;;;;;0.52;0.52;;;;;;;;;;4978994;28;20459;-85
2023/10/20 14:10:31;;;;;;;0.43;0.40;;;;;;;;;;4979008;28;20030;-87
2023/10/20 14:12:57;;;;;;;0.68;0.68;;;;;;;;;;4985316;28;20026;-86
2023/10/20 14:15:23;;;;;;;0.80;0.73;;;;;;;;;;4991817;28;20442;-86
2023/10/20 14:17:50;;;;;;;0.95;0.75;;;;;;;;;;4991548;28;20034;-87
2023/10/20 14:20:16;;;;;;;0.40;0.40;;;;;;;;;;4990646;28;20027;-86
2023/10/20 14:22:42;;;;;;;0.47;0.47;;;;;;;;;;4979434;28;20069;-86
2023/10/20 14:25:09;;;;;;;1.20;0.55;;;;;;;;;;4962019;28;20034;-86
2023/10/20 14:27:36;;;;;;;1.42;0.63;;;;;;;;;;4978272;28;20034;-88
2023/10/20 14:30:02;;;;;;;0.82;0.70;;;;;;;;;;4978802;28;20104;-86
2023/10/20 14:32:28;;;;;;;0.50;0.47;;;;;;;;;;4978636;28;20078;-86
2023/10/20 14:34:54;;;;;;;0.65;0.57;;;;;;;;;;4977756;28;20475;-85
2023/10/20 14:37:21;;;;;;;0.57;0.50;;;;;;;;;;4981357;28;20564;-87
2023/10/20 14:39:48;;;;;;;0.50;0.50;;;;;;;;;;4997311;28;20021;-86
2023/10/20 14:42:15;;;;;;;1.05;0.68;;;;;;;;;;4984409;28;20471;-86
2023/10/20 14:44:41;;;;;;;0.75;0.63;;;;;;;;;;4978213;28;20057;-87
2023/10/20 14:47:07;;;;;;;0.30;0.30;;;;;;;;;;4978660;28;20031;-89
2023/10/20 14:49:33;;;;;;;0.40;0.40;;;;;;;;;;4978674;28;20042;-86
2023/10/20 14:52:02;;;;;;;2.08;0.60;;;;;;;;;;4993733;28;20033;-87
2023/10/20 14:54:28;;;;;;;0.50;0.50;;;;;;;;;;5016198;28;20033;-89
2023/10/20 14:56:55;;;;;;;0.45;0.45;;;;;;;;;;4998443;28;20033;-87
2023/10/20 14:59:21;;;;;;;0.40;0.40;;;;;;;;;;4997715;28;20026;-88
2023/10/20 15:01:47;;;;;;;0.55;0.50;;;;;;;;;;4991861;28;20113;-87
2023/10/20 15:04:13;;;;;;;0.40;0.40;;;;;;;;;;4997076;28;20041;-87
2023/10/20 15:06:40;;;;;;;0.40;0.40;;;;;;;;;;4997872;28;20030;-89
2023/10/20 15:09:06;;;;;;;0.40;0.40;;;;;;;;;;4997609;28;20454;-85
2023/10/20 15:11:33;;;;;;;0.52;0.52;;;;;;;;;;4997379;28;20026;-87
2023/10/20 15:13:59;;;;;;;0.55;0.55;;;;;;;;;;4996701;28;20116;-86
2023/10/20 15:16:25;;;;;;;0.40;0.40;;;;;;;;;;4997107;28;20024;-84
2023/10/20 15:18:51;;;;;;;0.82;0.55;;;;;;;;;;4997090;28;20061;-85
2023/10/20 15:21:17;;;;;;;0.68;0.60;;;;;;;;;;4996687;28;20061;-87
2023/10/20 15:23:43;;;;;;;0.75;0.63;;;;;;;;;;5014294;28;20029;-85
2023/10/20 15:26:09;;;;;;;0.75;0.50;;;;;;;;;;4997614;28;20030;-86
2023/10/20 15:28:35;;;;;;;0.90;0.60;;;;;;;;;;4996990;28;20465;-86
2023/10/20 15:31:11;;;;;;;0.55;0.52;;;;;;;;;;4996752;28;20098;-86
2023/10/20 15:33:37;;;;;;;0.68;0.63;;;;;;;;;;5000486;28;20026;-84
2023/10/20 15:36:10;;;;;;;1.13;0.77;;;;;;;;;;5017737;28;20026;-87
2023/10/20 15:38:37;;;;;;;2.80;1.17;;;;;;;;;;5000332;28;20474;-84
2023/10/20 15:41:03;;;;;;;1.52;1.05;;;;;;;;;;5000353;28;20104;-86
2023/10/20 15:43:30;;;;;;;0.40;0.40;;;;;;;;;;5000089;28;20137;-86
2023/10/20 15:45:56;;;;;;;1.20;0.88;;;;;;;;;;5000607;28;20037;-87
2023/10/20 15:48:22;;;;;;;0.50;0.50;;;;;;;;;;5001118;28;20022;-87
2023/10/20 15:50:48;;;;;;;0.55;0.55;;;;;;;;;;5000134;28;20022;-86
2023/10/20 15:53:14;;;;;;;0.85;0.65;;;;;;;;;;5000390;28;20180;-88
2023/10/20 15:55:41;;;;;;;0.40;0.40;;;;;;;;;;5000540;28;20605;-87
2023/10/20 15:58:08;;;;;;;0.75;0.68;;;;;;;;;;4994546;28;20112;-87
2023/10/20 16:00:35;;;;;;;0.82;0.82;;;;;;;;;;4998481;28;20538;-87
2023/10/20 16:03:01;;;;;;;0.50;0.45;;;;;;;;;;5000539;28;20034;-91
2023/10/20 16:05:27;;;;;;;0.30;0.30;;;;;;;;;;5001276;28;20034;-88
2023/10/20 16:07:54;;;;;;;0.40;0.40;;;;;;;;;;5016964;28;20026;-88
2023/10/20 16:10:20;;;;;;;1.13;0.70;;;;;;;;;;5012886;28;20057;-88
2023/10/20 16:12:46;;;;;;;0.40;0.40;;;;;;;;;;5000320;28;20359;-91
2023/10/20 16:15:12;;;;;;;0.47;0.47;;;;;;;;;;5001882;28;20026;-91
2023/10/20 16:17:39;;;;;;;1.25;1.15;;;614.50;2150.40;;;;;;5019629;28;20068;-86
2023/10/20 16:20:06;;;;;;;0.82;0.70;;;614.60;2150.40;;;;;;5000898;28;20053;-86
2023/10/20 16:22:32;;;;;;;0.50;0.50;;;614.50;2150.40;;;;;;5000861;28;20148;-88
2023/10/20 16:24:58;;;;;;;0.40;0.40;;;589.70;2176.00;;;;;;4999950;28;20034;-86
2023/10/20 16:27:24;;;;;;;0.30;0.30;;;589.70;2176.00;;;;;;5000595;28;20053;-89
2023/10/20 16:29:51;;;;;;;0.40;0.40;;;589.70;2201.60;;;;;;4999545;28;20026;-88
2023/10/20 16:32:17;;;;;;;0.50;0.50;;;589.70;2201.60;;;;;;4999159;28;20193;-89
2023/10/20 16:34:44;;;;;;;2.28;0.60;;;589.70;2201.60;;;;;;5000584;28;20068;-87
2023/10/20 16:37:10;;;;;;;0.85;0.63;;;589.60;2201.60;;;;;;5000423;28;20076;-88
2023/10/20 16:39:36;;;;;;;0.47;0.47;;;589.70;2201.60;;;;;;5017585;28;20433;-90
2023/10/20 16:42:02;;;;;;;0.60;0.60;;;614.40;2227.20;;;;;;5001189;28;20543;-88
2023/10/20 16:44:29;;;;;;;0.75;0.75;;;589.70;2227.20;;;;;;4991614;28;20030;-89
2023/10/20 16:46:55;;;;;;;0.40;0.40;;;589.50;2227.20;;;;;;4965159;28;20035;-88
2023/10/20 16:49:22;;;;;;;0.63;0.50;;;589.30;2252.80;;;;;;4973099;28;20030;-88
2023/10/20 16:51:48;;;;;;;0.47;0.47;;;589.20;2278.40;;;;;;4980495;28;20027;-88
2023/10/20 16:54:15;;;;;;;0.88;0.70;;;589.30;2278.40;;;;;;4975496;28;20030;-89
2023/10/20 16:56:46;;;;;;;0.50;0.50;;;589.60;2278.40;;;;;;4967018;28;20035;-88
2023/10/20 16:59:12;;;;;;;0.47;0.47;;;589.10;2304.00;;;;;;4970357;28;20178;-88
2023/10/20 17:01:38;;;;;;;0.52;0.52;;;589.00;2304.00;;;;;;4978925;28;20031;-87
2023/10/20 17:04:04;;;;;;;0.80;0.65;;;589.10;2278.40;;;;;;4975808;28;20046;-87
2023/10/20 17:06:31;;;;;;;0.60;0.60;;;588.90;2304.00;;;;;;4966987;28;20536;-89
2023/10/20 17:08:58;;;;;;;0.50;0.50;;;;;;;;;;4979508;28;20494;-87
2023/10/20 17:11:24;;;;;;;0.50;0.50;;;;;;;;;;4966404;28;20049;-87